sensor_id;sensor_type;location;lat;lon;timestamp;P1;durP1;ratioP1;P2;durP2;ratioP2
66012;SDS011;52783;50.502;8.190;2022-09-11T00:00:41;20.60;;;16.08;;
66012;SDS011;52783;50.502;8.190;2022-09-11T00:03:07;22.27;;;15.93;;
66012;SDS011;52783;50.502;8.190;2022-09-11T00:05:37;22.10;;;16.17;;
66012;SDS011;52783;50.502;8.190;2022-09-11T00:08:04;20.85;;;15.50;;
66012;SDS011;52783;50.502;8.190;2022-09-11T00:10:32;24.00;;;16.08;;
66012;SDS011;52783;50.502;8.190;2022-09-11T00:13:00;26.98;;;15.75;;
66012;SDS011;52783;50.502;8.190;2022-09-11T00:15:27;29.10;;;17.52;;
66012;SDS011;52783;50.502;8.190;2022-09-11T00:17:54;27.00;;;17.90;;
66012;SDS011;52783;50.502;8.190;2022-09-11T00:20:20;24.80;;;16.17;;
66012;SDS011;52783;50.502;8.190;2022-09-11T00:22:47;26.23;;;16.98;;
66012;SDS011;52783;50.502;8.190;2022-09-11T00:25:13;24.80;;;16.23;;
66012;SDS011;52783;50.502;8.190;2022-09-11T00:27:38;22.15;;;15.52;;
66012;SDS011;52783;50.502;8.190;2022-09-11T00:30:04;25.05;;;14.75;;
66012;SDS011;52783;50.502;8.190;2022-09-11T00:32:30;22.30;;;14.75;;
66012;SDS011;52783;50.502;8.190;2022-09-11T00:34:57;18.35;;;14.32;;
66012;SDS011;52783;50.502;8.190;2022-09-11T00:37:23;24.88;;;15.10;;
66012;SDS011;52783;50.502;8.190;2022-09-11T00:39:48;21.45;;;14.85;;
66012;SDS011;52783;50.502;8.190;2022-09-11T00:42:14;21.17;;;14.90;;
66012;SDS011;52783;50.502;8.190;2022-09-11T00:47:06;24.45;;;16.00;;
66012;SDS011;52783;50.502;8.190;2022-09-11T00:49:43;20.42;;;15.70;;
66012;SDS011;52783;50.502;8.190;2022-09-11T00:52:18;22.88;;;16.30;;
66012;SDS011;52783;50.502;8.190;2022-09-11T00:54:50;17.83;;;13.90;;
66012;SDS011;52783;50.502;8.190;2022-09-11T00:57:20;19.98;;;15.27;;
66012;SDS011;52783;50.502;8.190;2022-09-11T00:59:48;19.23;;;13.55;;
66012;SDS011;52783;50.502;8.190;2022-09-11T01:02:18;16.50;;;12.57;;
66012;SDS011;52783;50.502;8.190;2022-09-11T01:04:46;25.92;;;14.68;;
66012;SDS011;52783;50.502;8.190;2022-09-11T01:07:12;20.95;;;15.05;;
66012;SDS011;52783;50.502;8.190;2022-09-11T01:09:39;24.73;;;16.33;;
66012;SDS011;52783;50.502;8.190;2022-09-11T01:12:16;24.67;;;17.05;;
66012;SDS011;52783;50.502;8.190;2022-09-11T01:14:53;27.45;;;16.98;;
66012;SDS011;52783;50.502;8.190;2022-09-11T01:17:26;28.60;;;18.30;;
66012;SDS011;52783;50.502;8.190;2022-09-11T01:20:14;32.70;;;18.83;;
66012;SDS011;52783;50.502;8.190;2022-09-11T01:25:27;26.00;;;17.42;;
66012;SDS011;52783;50.502;8.190;2022-09-11T01:28:06;25.23;;;16.20;;
66012;SDS011;52783;50.502;8.190;2022-09-11T01:30:43;24.40;;;17.13;;
66012;SDS011;52783;50.502;8.190;2022-09-11T01:33:19;27.45;;;17.67;;
66012;SDS011;52783;50.502;8.190;2022-09-11T01:35:55;31.65;;;18.23;;
66012;SDS011;52783;50.502;8.190;2022-09-11T01:38:40;27.85;;;18.13;;
66012;SDS011;52783;50.502;8.190;2022-09-11T01:41:25;27.08;;;17.88;;
66012;SDS011;52783;50.502;8.190;2022-09-11T01:43:59;28.15;;;17.58;;
66012;SDS011;52783;50.502;8.190;2022-09-11T01:46:47;33.28;;;19.25;;
66012;SDS011;52783;50.502;8.190;2022-09-11T01:49:16;31.63;;;19.13;;
66012;SDS011;52783;50.502;8.190;2022-09-11T01:52:02;31.98;;;19.58;;
66012;SDS011;52783;50.502;8.190;2022-09-11T01:54:32;30.92;;;18.75;;
66012;SDS011;52783;50.502;8.190;2022-09-11T01:57:07;34.47;;;19.40;;
66012;SDS011;52783;50.502;8.190;2022-09-11T01:59:45;31.20;;;18.52;;
66012;SDS011;52783;50.502;8.190;2022-09-11T02:02:15;30.40;;;18.88;;
66012;SDS011;52783;50.502;8.190;2022-09-11T02:04:46;29.77;;;18.98;;
66012;SDS011;52783;50.502;8.190;2022-09-11T02:07:17;31.45;;;19.15;;
66012;SDS011;52783;50.502;8.190;2022-09-11T02:09:46;31.90;;;19.40;;
66012;SDS011;52783;50.502;8.190;2022-09-11T02:12:17;33.83;;;19.13;;
66012;SDS011;52783;50.502;8.190;2022-09-11T02:14:46;30.67;;;18.77;;
66012;SDS011;52783;50.502;8.190;2022-09-11T02:17:15;32.35;;;20.10;;
66012;SDS011;52783;50.502;8.190;2022-09-11T02:19:41;32.00;;;20.40;;
66012;SDS011;52783;50.502;8.190;2022-09-11T02:22:07;29.33;;;18.50;;
66012;SDS011;52783;50.502;8.190;2022-09-11T02:24:33;33.97;;;19.80;;
66012;SDS011;52783;50.502;8.190;2022-09-11T02:27:09;36.88;;;19.75;;
66012;SDS011;52783;50.502;8.190;2022-09-11T02:29:40;34.67;;;20.88;;
66012;SDS011;52783;50.502;8.190;2022-09-11T02:32:06;34.40;;;19.83;;
66012;SDS011;52783;50.502;8.190;2022-09-11T02:34:35;39.05;;;20.35;;
66012;SDS011;52783;50.502;8.190;2022-09-11T02:49:18;32.45;;;18.33;;
66012;SDS011;52783;50.502;8.190;2022-09-11T02:51:53;32.00;;;19.30;;
66012;SDS011;52783;50.502;8.190;2022-09-11T02:54:34;28.80;;;18.38;;
66012;SDS011;52783;50.502;8.190;2022-09-11T02:57:16;32.47;;;19.77;;
66012;SDS011;52783;50.502;8.190;2022-09-11T02:59:50;32.80;;;19.25;;
66012;SDS011;52783;50.502;8.190;2022-09-11T03:02:20;33.00;;;19.92;;
66012;SDS011;52783;50.502;8.190;2022-09-11T03:04:48;32.88;;;20.15;;
66012;SDS011;52783;50.502;8.190;2022-09-11T03:07:14;34.70;;;19.70;;
66012;SDS011;52783;50.502;8.190;2022-09-11T03:09:40;33.22;;;18.88;;
66012;SDS011;52783;50.502;8.190;2022-09-11T03:12:06;29.95;;;18.75;;
66012;SDS011;52783;50.502;8.190;2022-09-11T03:14:31;33.70;;;19.42;;
66012;SDS011;52783;50.502;8.190;2022-09-11T03:16:57;36.55;;;19.95;;
66012;SDS011;52783;50.502;8.190;2022-09-11T03:19:23;32.30;;;20.30;;
66012;SDS011;52783;50.502;8.190;2022-09-11T03:21:48;33.45;;;20.08;;
66012;SDS011;52783;50.502;8.190;2022-09-11T03:24:15;36.05;;;20.35;;
66012;SDS011;52783;50.502;8.190;2022-09-11T03:26:41;33.75;;;18.35;;
66012;SDS011;52783;50.502;8.190;2022-09-11T03:29:07;33.72;;;20.55;;
66012;SDS011;52783;50.502;8.190;2022-09-11T03:31:32;34.22;;;20.65;;
66012;SDS011;52783;50.502;8.190;2022-09-11T03:33:58;42.55;;;22.90;;
66012;SDS011;52783;50.502;8.190;2022-09-11T03:36:24;44.55;;;23.88;;
66012;SDS011;52783;50.502;8.190;2022-09-11T03:38:49;38.15;;;24.77;;
66012;SDS011;52783;50.502;8.190;2022-09-11T03:41:16;42.83;;;24.40;;
66012;SDS011;52783;50.502;8.190;2022-09-11T03:43:42;42.95;;;24.60;;
66012;SDS011;52783;50.502;8.190;2022-09-11T03:46:08;44.03;;;24.88;;
66012;SDS011;52783;50.502;8.190;2022-09-11T03:48:34;39.65;;;23.70;;
66012;SDS011;52783;50.502;8.190;2022-09-11T03:51:00;43.90;;;24.13;;
66012;SDS011;52783;50.502;8.190;2022-09-11T03:53:25;39.53;;;24.33;;
66012;SDS011;52783;50.502;8.190;2022-09-11T03:55:51;40.45;;;23.38;;
66012;SDS011;52783;50.502;8.190;2022-09-11T03:58:17;45.70;;;24.85;;
66012;SDS011;52783;50.502;8.190;2022-09-11T04:00:45;42.45;;;23.45;;
66012;SDS011;52783;50.502;8.190;2022-09-11T04:03:12;41.53;;;23.65;;
66012;SDS011;52783;50.502;8.190;2022-09-11T04:05:42;39.13;;;23.85;;
66012;SDS011;52783;50.502;8.190;2022-09-11T04:08:19;38.17;;;22.63;;
66012;SDS011;52783;50.502;8.190;2022-09-11T04:10:44;39.88;;;22.83;;
66012;SDS011;52783;50.502;8.190;2022-09-11T04:13:10;39.83;;;22.75;;
66012;SDS011;52783;50.502;8.190;2022-09-11T04:15:36;44.97;;;22.92;;
66012;SDS011;52783;50.502;8.190;2022-09-11T04:18:04;40.53;;;22.65;;
66012;SDS011;52783;50.502;8.190;2022-09-11T04:20:30;42.55;;;22.08;;
66012;SDS011;52783;50.502;8.190;2022-09-11T04:22:56;42.28;;;22.83;;
66012;SDS011;52783;50.502;8.190;2022-09-11T04:25:22;41.38;;;23.77;;
66012;SDS011;52783;50.502;8.190;2022-09-11T04:27:47;39.17;;;22.63;;
66012;SDS011;52783;50.502;8.190;2022-09-11T04:30:13;44.35;;;23.45;;
66012;SDS011;52783;50.502;8.190;2022-09-11T04:32:38;39.88;;;23.25;;
66012;SDS011;52783;50.502;8.190;2022-09-11T04:35:04;49.03;;;24.40;;
66012;SDS011;52783;50.502;8.190;2022-09-11T04:37:30;40.42;;;21.55;;
66012;SDS011;52783;50.502;8.190;2022-09-11T04:39:55;51.45;;;25.83;;
66012;SDS011;52783;50.502;8.190;2022-09-11T04:42:21;50.38;;;25.90;;
66012;SDS011;52783;50.502;8.190;2022-09-11T04:44:46;44.33;;;23.02;;
66012;SDS011;52783;50.502;8.190;2022-09-11T04:47:12;45.30;;;23.83;;
66012;SDS011;52783;50.502;8.190;2022-09-11T04:49:37;45.85;;;23.88;;
66012;SDS011;52783;50.502;8.190;2022-09-11T04:52:04;59.95;;;28.60;;
66012;SDS011;52783;50.502;8.190;2022-09-11T04:54:31;49.22;;;25.70;;
66012;SDS011;52783;50.502;8.190;2022-09-11T04:56:58;60.13;;;28.08;;
66012;SDS011;52783;50.502;8.190;2022-09-11T04:59:25;73.57;;;31.25;;
66012;SDS011;52783;50.502;8.190;2022-09-11T05:01:51;76.30;;;32.15;;
66012;SDS011;52783;50.502;8.190;2022-09-11T05:04:18;78.18;;;33.38;;
66012;SDS011;52783;50.502;8.190;2022-09-11T05:06:44;71.82;;;31.50;;
66012;SDS011;52783;50.502;8.190;2022-09-11T05:09:12;84.35;;;33.70;;
66012;SDS011;52783;50.502;8.190;2022-09-11T05:11:38;82.43;;;33.97;;
66012;SDS011;52783;50.502;8.190;2022-09-11T05:14:03;76.70;;;32.63;;
66012;SDS011;52783;50.502;8.190;2022-09-11T05:16:30;76.40;;;32.60;;
66012;SDS011;52783;50.502;8.190;2022-09-11T05:18:58;81.25;;;34.17;;
66012;SDS011;52783;50.502;8.190;2022-09-11T05:21:24;79.88;;;33.92;;
66012;SDS011;52783;50.502;8.190;2022-09-11T05:23:51;73.78;;;31.67;;
66012;SDS011;52783;50.502;8.190;2022-09-11T05:26:19;76.22;;;32.30;;
66012;SDS011;52783;50.502;8.190;2022-09-11T05:28:46;58.83;;;28.08;;
66012;SDS011;52783;50.502;8.190;2022-09-11T05:31:16;67.30;;;30.52;;
66012;SDS011;52783;50.502;8.190;2022-09-11T05:33:43;56.85;;;28.00;;
66012;SDS011;52783;50.502;8.190;2022-09-11T05:36:10;51.97;;;25.77;;
66012;SDS011;52783;50.502;8.190;2022-09-11T05:38:36;53.70;;;28.17;;
66012;SDS011;52783;50.502;8.190;2022-09-11T05:41:03;51.13;;;27.60;;
66012;SDS011;52783;50.502;8.190;2022-09-11T05:43:30;76.57;;;28.83;;
66012;SDS011;52783;50.502;8.190;2022-09-11T05:45:59;52.20;;;27.38;;
66012;SDS011;52783;50.502;8.190;2022-09-11T05:48:28;43.60;;;24.95;;
66012;SDS011;52783;50.502;8.190;2022-09-11T05:50:56;42.28;;;24.85;;
66012;SDS011;52783;50.502;8.190;2022-09-11T05:53:26;44.75;;;24.27;;
66012;SDS011;52783;50.502;8.190;2022-09-11T05:55:53;43.28;;;24.58;;
66012;SDS011;52783;50.502;8.190;2022-09-11T05:58:19;41.05;;;25.08;;
66012;SDS011;52783;50.502;8.190;2022-09-11T06:00:46;37.00;;;23.27;;
66012;SDS011;52783;50.502;8.190;2022-09-11T06:03:12;43.97;;;24.60;;
66012;SDS011;52783;50.502;8.190;2022-09-11T06:05:39;37.65;;;23.90;;
66012;SDS011;52783;50.502;8.190;2022-09-11T06:08:06;38.08;;;22.63;;
66012;SDS011;52783;50.502;8.190;2022-09-11T06:10:33;34.92;;;22.17;;
66012;SDS011;52783;50.502;8.190;2022-09-11T06:13:10;39.25;;;24.27;;
66012;SDS011;52783;50.502;8.190;2022-09-11T06:15:35;44.85;;;25.02;;
66012;SDS011;52783;50.502;8.190;2022-09-11T06:18:08;47.38;;;24.90;;
66012;SDS011;52783;50.502;8.190;2022-09-11T06:20:33;45.65;;;25.48;;
66012;SDS011;52783;50.502;8.190;2022-09-11T06:22:59;50.20;;;25.75;;
66012;SDS011;52783;50.502;8.190;2022-09-11T06:25:24;41.67;;;25.70;;
66012;SDS011;52783;50.502;8.190;2022-09-11T06:27:50;47.33;;;25.80;;
66012;SDS011;52783;50.502;8.190;2022-09-11T06:30:15;46.92;;;26.98;;
66012;SDS011;52783;50.502;8.190;2022-09-11T06:32:41;38.28;;;24.08;;
66012;SDS011;52783;50.502;8.190;2022-09-11T06:35:07;41.05;;;25.17;;
66012;SDS011;52783;50.502;8.190;2022-09-11T06:37:32;39.08;;;25.65;;
66012;SDS011;52783;50.502;8.190;2022-09-11T06:39:59;43.58;;;25.30;;
66012;SDS011;52783;50.502;8.190;2022-09-11T06:42:26;41.63;;;25.45;;
66012;SDS011;52783;50.502;8.190;2022-09-11T06:44:51;47.17;;;26.15;;
66012;SDS011;52783;50.502;8.190;2022-09-11T06:47:17;38.45;;;24.08;;
66012;SDS011;52783;50.502;8.190;2022-09-11T06:49:42;44.35;;;26.35;;
66012;SDS011;52783;50.502;8.190;2022-09-11T06:52:08;44.13;;;25.58;;
66012;SDS011;52783;50.502;8.190;2022-09-11T06:54:33;41.22;;;26.73;;
66012;SDS011;52783;50.502;8.190;2022-09-11T06:56:59;44.53;;;26.38;;
66012;SDS011;52783;50.502;8.190;2022-09-11T06:59:24;46.03;;;26.23;;
66012;SDS011;52783;50.502;8.190;2022-09-11T07:01:50;43.67;;;25.70;;
66012;SDS011;52783;50.502;8.190;2022-09-11T07:04:15;47.80;;;27.42;;
66012;SDS011;52783;50.502;8.190;2022-09-11T07:06:41;45.33;;;25.30;;
66012;SDS011;52783;50.502;8.190;2022-09-11T07:09:08;46.67;;;27.50;;
66012;SDS011;52783;50.502;8.190;2022-09-11T07:11:35;49.53;;;27.65;;
66012;SDS011;52783;50.502;8.190;2022-09-11T07:14:01;44.70;;;26.83;;
66012;SDS011;52783;50.502;8.190;2022-09-11T07:16:29;44.38;;;27.40;;
66012;SDS011;52783;50.502;8.190;2022-09-11T07:18:55;46.25;;;27.10;;
66012;SDS011;52783;50.502;8.190;2022-09-11T07:21:23;41.50;;;25.75;;
66012;SDS011;52783;50.502;8.190;2022-09-11T07:23:51;43.63;;;26.52;;
66012;SDS011;52783;50.502;8.190;2022-09-11T07:26:21;43.10;;;25.15;;
66012;SDS011;52783;50.502;8.190;2022-09-11T07:28:49;45.47;;;27.00;;
66012;SDS011;52783;50.502;8.190;2022-09-11T07:31:16;44.80;;;25.35;;
66012;SDS011;52783;50.502;8.190;2022-09-11T07:33:44;48.20;;;26.73;;
66012;SDS011;52783;50.502;8.190;2022-09-11T07:36:12;44.83;;;26.70;;
66012;SDS011;52783;50.502;8.190;2022-09-11T07:38:48;42.58;;;27.00;;
66012;SDS011;52783;50.502;8.190;2022-09-11T07:41:15;52.92;;;27.98;;
66012;SDS011;52783;50.502;8.190;2022-09-11T07:43:42;50.67;;;27.50;;
66012;SDS011;52783;50.502;8.190;2022-09-11T07:46:12;48.85;;;27.80;;
66012;SDS011;52783;50.502;8.190;2022-09-11T07:48:38;45.42;;;25.45;;
66012;SDS011;52783;50.502;8.190;2022-09-11T07:51:05;44.20;;;25.02;;
66012;SDS011;52783;50.502;8.190;2022-09-11T07:53:42;47.10;;;25.17;;
66012;SDS011;52783;50.502;8.190;2022-09-11T07:56:22;40.38;;;24.17;;
66012;SDS011;52783;50.502;8.190;2022-09-11T07:58:49;39.78;;;23.10;;
66012;SDS011;52783;50.502;8.190;2022-09-11T08:01:17;34.10;;;21.60;;
66012;SDS011;52783;50.502;8.190;2022-09-11T08:03:44;35.88;;;20.73;;
66012;SDS011;52783;50.502;8.190;2022-09-11T08:06:14;34.42;;;20.48;;
66012;SDS011;52783;50.502;8.190;2022-09-11T08:08:41;37.20;;;17.83;;
66012;SDS011;52783;50.502;8.190;2022-09-11T08:11:09;26.02;;;16.58;;
66012;SDS011;52783;50.502;8.190;2022-09-11T08:13:36;29.40;;;17.27;;
66012;SDS011;52783;50.502;8.190;2022-09-11T08:16:03;25.95;;;16.40;;
66012;SDS011;52783;50.502;8.190;2022-09-11T08:18:29;24.27;;;16.20;;
66012;SDS011;52783;50.502;8.190;2022-09-11T08:21:02;27.83;;;17.15;;
66012;SDS011;52783;50.502;8.190;2022-09-11T08:23:31;24.98;;;16.27;;
66012;SDS011;52783;50.502;8.190;2022-09-11T08:26:06;24.83;;;16.13;;
66012;SDS011;52783;50.502;8.190;2022-09-11T08:28:36;26.80;;;15.20;;
66012;SDS011;52783;50.502;8.190;2022-09-11T08:31:04;26.70;;;14.60;;
66012;SDS011;52783;50.502;8.190;2022-09-11T08:33:30;18.65;;;12.23;;
66012;SDS011;52783;50.502;8.190;2022-09-11T08:35:57;20.75;;;12.55;;
66012;SDS011;52783;50.502;8.190;2022-09-11T08:38:23;17.50;;;11.35;;
66012;SDS011;52783;50.502;8.190;2022-09-11T08:40:49;21.40;;;12.73;;
66012;SDS011;52783;50.502;8.190;2022-09-11T08:43:22;16.85;;;11.70;;
66012;SDS011;52783;50.502;8.190;2022-09-11T08:45:53;29.65;;;14.43;;
66012;SDS011;52783;50.502;8.190;2022-09-11T08:48:26;27.03;;;16.87;;
66012;SDS011;52783;50.502;8.190;2022-09-11T08:50:58;30.38;;;17.17;;
66012;SDS011;52783;50.502;8.190;2022-09-11T08:53:31;27.67;;;17.45;;
66012;SDS011;52783;50.502;8.190;2022-09-11T08:56:02;25.15;;;16.00;;
66012;SDS011;52783;50.502;8.190;2022-09-11T09:01:59;24.27;;;13.90;;
66012;SDS011;52783;50.502;8.190;2022-09-11T09:04:57;18.67;;;11.85;;
66012;SDS011;52783;50.502;8.190;2022-09-11T09:21:12;20.42;;;11.32;;
66012;SDS011;52783;50.502;8.190;2022-09-11T09:23:43;17.88;;;10.88;;
66012;SDS011;52783;50.502;8.190;2022-09-11T09:26:16;15.90;;;10.43;;
66012;SDS011;52783;50.502;8.190;2022-09-11T09:28:44;16.88;;;11.27;;
66012;SDS011;52783;50.502;8.190;2022-09-11T09:31:10;16.33;;;10.40;;
66012;SDS011;52783;50.502;8.190;2022-09-11T09:33:51;15.07;;;10.07;;
66012;SDS011;52783;50.502;8.190;2022-09-11T09:36:52;19.20;;;10.02;;
66012;SDS011;52783;50.502;8.190;2022-09-11T09:39:24;17.20;;;10.90;;
66012;SDS011;52783;50.502;8.190;2022-09-11T09:45:13;17.27;;;7.95;;
66012;SDS011;52783;50.502;8.190;2022-09-11T09:47:38;12.90;;;8.18;;
66012;SDS011;52783;50.502;8.190;2022-09-11T09:50:22;14.70;;;8.43;;
66012;SDS011;52783;50.502;8.190;2022-09-11T09:52:51;13.77;;;8.57;;
66012;SDS011;52783;50.502;8.190;2022-09-11T09:55:26;13.25;;;8.70;;
66012;SDS011;52783;50.502;8.190;2022-09-11T09:57:52;14.38;;;9.27;;
66012;SDS011;52783;50.502;8.190;2022-09-11T10:00:18;18.73;;;10.45;;
66012;SDS011;52783;50.502;8.190;2022-09-11T10:02:45;17.00;;;10.35;;
66012;SDS011;52783;50.502;8.190;2022-09-11T10:05:28;18.05;;;11.05;;
66012;SDS011;52783;50.502;8.190;2022-09-11T10:08:05;19.27;;;11.30;;
66012;SDS011;52783;50.502;8.190;2022-09-11T10:13:21;18.88;;;11.13;;
66012;SDS011;52783;50.502;8.190;2022-09-11T10:15:50;18.50;;;10.20;;
66012;SDS011;52783;50.502;8.190;2022-09-11T10:18:33;17.63;;;10.82;;
66012;SDS011;52783;50.502;8.190;2022-09-11T10:23:57;19.42;;;10.60;;
66012;SDS011;52783;50.502;8.190;2022-09-11T10:26:27;18.42;;;9.50;;
66012;SDS011;52783;50.502;8.190;2022-09-11T10:28:55;18.23;;;9.80;;
66012;SDS011;52783;50.502;8.190;2022-09-11T10:31:24;19.87;;;10.60;;
66012;SDS011;52783;50.502;8.190;2022-09-11T10:33:57;17.55;;;10.23;;
66012;SDS011;52783;50.502;8.190;2022-09-11T10:36:24;17.52;;;9.68;;
66012;SDS011;52783;50.502;8.190;2022-09-11T10:38:52;13.35;;;8.30;;
66012;SDS011;52783;50.502;8.190;2022-09-11T10:41:21;17.98;;;8.02;;
66012;SDS011;52783;50.502;8.190;2022-09-11T10:43:53;15.23;;;8.55;;
66012;SDS011;52783;50.502;8.190;2022-09-11T10:51:32;15.50;;;7.93;;
66012;SDS011;52783;50.502;8.190;2022-09-11T10:59:58;17.60;;;8.90;;
66012;SDS011;52783;50.502;8.190;2022-09-11T11:02:29;15.23;;;7.75;;
66012;SDS011;52783;50.502;8.190;2022-09-11T11:05:44;13.02;;;7.35;;
66012;SDS011;52783;50.502;8.190;2022-09-11T11:08:13;17.30;;;7.65;;
66012;SDS011;52783;50.502;8.190;2022-09-11T11:11:05;11.85;;;7.57;;
66012;SDS011;52783;50.502;8.190;2022-09-11T11:27:51;14.15;;;6.88;;
66012;SDS011;52783;50.502;8.190;2022-09-11T11:30:40;12.55;;;7.00;;
66012;SDS011;52783;50.502;8.190;2022-09-11T11:38:45;12.77;;;6.88;;
66012;SDS011;52783;50.502;8.190;2022-09-11T11:41:25;14.55;;;7.47;;
66012;SDS011;52783;50.502;8.190;2022-09-11T11:44:00;12.80;;;7.15;;
66012;SDS011;52783;50.502;8.190;2022-09-11T11:46:29;11.70;;;5.78;;
66012;SDS011;52783;50.502;8.190;2022-09-11T11:49:08;9.45;;;6.38;;
66012;SDS011;52783;50.502;8.190;2022-09-11T11:51:45;16.65;;;6.78;;
66012;SDS011;52783;50.502;8.190;2022-09-11T11:54:27;16.42;;;7.47;;
66012;SDS011;52783;50.502;8.190;2022-09-11T11:57:08;10.85;;;5.82;;
66012;SDS011;52783;50.502;8.190;2022-09-11T11:59:40;11.98;;;5.22;;
66012;SDS011;52783;50.502;8.190;2022-09-11T12:07:35;8.77;;;5.22;;
66012;SDS011;52783;50.502;8.190;2022-09-11T12:10:04;10.20;;;5.10;;
66012;SDS011;52783;50.502;8.190;2022-09-11T12:12:42;12.52;;;5.80;;
66012;SDS011;52783;50.502;8.190;2022-09-11T12:15:18;8.73;;;5.13;;
66012;SDS011;52783;50.502;8.190;2022-09-11T12:17:46;9.93;;;5.57;;
66012;SDS011;52783;50.502;8.190;2022-09-11T12:20:31;10.35;;;5.07;;
66012;SDS011;52783;50.502;8.190;2022-09-11T12:22:59;11.43;;;5.45;;
66012;SDS011;52783;50.502;8.190;2022-09-11T12:28:09;10.65;;;6.18;;
66012;SDS011;52783;50.502;8.190;2022-09-11T12:36:04;5.93;;;3.90;;
66012;SDS011;52783;50.502;8.190;2022-09-11T12:39:13;6.38;;;4.25;;
66012;SDS011;52783;50.502;8.190;2022-09-11T12:41:44;6.45;;;4.35;;
66012;SDS011;52783;50.502;8.190;2022-09-11T12:49:21;11.43;;;5.97;;
66012;SDS011;52783;50.502;8.190;2022-09-11T12:51:50;12.55;;;6.32;;
66012;SDS011;52783;50.502;8.190;2022-09-11T12:54:29;10.48;;;6.28;;
66012;SDS011;52783;50.502;8.190;2022-09-11T12:57:03;9.38;;;5.55;;
66012;SDS011;52783;50.502;8.190;2022-09-11T13:01:58;12.02;;;5.60;;
66012;SDS011;52783;50.502;8.190;2022-09-11T13:04:25;11.15;;;5.68;;
66012;SDS011;52783;50.502;8.190;2022-09-11T13:06:59;10.02;;;6.15;;
66012;SDS011;52783;50.502;8.190;2022-09-11T13:09:45;9.95;;;5.18;;
66012;SDS011;52783;50.502;8.190;2022-09-11T13:14:51;10.52;;;4.85;;
66012;SDS011;52783;50.502;8.190;2022-09-11T13:17:22;10.00;;;4.95;;
66012;SDS011;52783;50.502;8.190;2022-09-11T13:19:55;9.75;;;5.35;;
66012;SDS011;52783;50.502;8.190;2022-09-11T13:22:39;8.07;;;4.78;;
66012;SDS011;52783;50.502;8.190;2022-09-11T13:25:27;11.13;;;5.65;;
66012;SDS011;52783;50.502;8.190;2022-09-11T13:27:52;10.90;;;5.70;;
66012;SDS011;52783;50.502;8.190;2022-09-11T13:30:21;10.57;;;6.25;;
66012;SDS011;52783;50.502;8.190;2022-09-11T13:32:49;12.25;;;6.47;;
66012;SDS011;52783;50.502;8.190;2022-09-11T13:35:27;11.73;;;6.35;;
66012;SDS011;52783;50.502;8.190;2022-09-11T13:38:27;11.30;;;6.15;;
66012;SDS011;52783;50.502;8.190;2022-09-11T13:43:17;10.15;;;6.28;;
66012;SDS011;52783;50.502;8.190;2022-09-11T13:45:46;10.98;;;6.80;;
66012;SDS011;52783;50.502;8.190;2022-09-11T13:48:21;16.23;;;7.10;;
66012;SDS011;52783;50.502;8.190;2022-09-11T13:50:47;11.15;;;6.10;;
66012;SDS011;52783;50.502;8.190;2022-09-11T13:53:14;12.65;;;6.35;;
66012;SDS011;52783;50.502;8.190;2022-09-11T13:55:45;14.02;;;7.10;;
66012;SDS011;52783;50.502;8.190;2022-09-11T13:58:27;11.63;;;6.40;;
66012;SDS011;52783;50.502;8.190;2022-09-11T14:01:09;12.15;;;6.18;;
66012;SDS011;52783;50.502;8.190;2022-09-11T14:03:35;11.43;;;6.03;;
66012;SDS011;52783;50.502;8.190;2022-09-11T14:06:09;10.98;;;5.90;;
66012;SDS011;52783;50.502;8.190;2022-09-11T14:08:42;11.23;;;6.25;;
66012;SDS011;52783;50.502;8.190;2022-09-11T14:13:54;14.52;;;7.00;;
66012;SDS011;52783;50.502;8.190;2022-09-11T14:18:56;14.30;;;7.45;;
66012;SDS011;52783;50.502;8.190;2022-09-11T14:21:35;12.02;;;7.45;;
66012;SDS011;52783;50.502;8.190;2022-09-11T14:24:02;11.23;;;7.20;;
66012;SDS011;52783;50.502;8.190;2022-09-11T14:26:40;13.70;;;8.20;;
66012;SDS011;52783;50.502;8.190;2022-09-11T14:34:56;19.45;;;8.27;;
66012;SDS011;52783;50.502;8.190;2022-09-11T14:37:22;14.07;;;7.68;;
66012;SDS011;52783;50.502;8.190;2022-09-11T14:39:56;15.38;;;7.70;;
66012;SDS011;52783;50.502;8.190;2022-09-11T14:42:28;12.02;;;7.22;;
66012;SDS011;52783;50.502;8.190;2022-09-11T14:44:56;20.98;;;7.80;;
66012;SDS011;52783;50.502;8.190;2022-09-11T14:47:23;13.35;;;8.10;;
66012;SDS011;52783;50.502;8.190;2022-09-11T14:49:51;15.93;;;7.50;;
66012;SDS011;52783;50.502;8.190;2022-09-11T14:52:19;12.95;;;7.65;;
66012;SDS011;52783;50.502;8.190;2022-09-11T14:54:47;14.35;;;7.93;;
66012;SDS011;52783;50.502;8.190;2022-09-11T14:57:14;12.18;;;7.53;;
66012;SDS011;52783;50.502;8.190;2022-09-11T14:59:42;12.65;;;7.00;;
66012;SDS011;52783;50.502;8.190;2022-09-11T15:02:15;12.23;;;7.43;;
66012;SDS011;52783;50.502;8.190;2022-09-11T15:04:43;11.65;;;6.82;;
66012;SDS011;52783;50.502;8.190;2022-09-11T15:07:10;12.77;;;7.05;;
66012;SDS011;52783;50.502;8.190;2022-09-11T15:09:37;12.15;;;7.10;;
66012;SDS011;52783;50.502;8.190;2022-09-11T15:12:04;12.82;;;6.55;;
66012;SDS011;52783;50.502;8.190;2022-09-11T15:14:33;13.73;;;7.25;;
66012;SDS011;52783;50.502;8.190;2022-09-11T15:16:59;15.18;;;6.97;;
66012;SDS011;52783;50.502;8.190;2022-09-11T15:19:29;10.82;;;6.88;;
66012;SDS011;52783;50.502;8.190;2022-09-11T15:21:54;15.60;;;7.32;;
66012;SDS011;52783;50.502;8.190;2022-09-11T15:24:22;13.48;;;7.53;;
66012;SDS011;52783;50.502;8.190;2022-09-11T15:26:48;12.90;;;7.20;;
66012;SDS011;52783;50.502;8.190;2022-09-11T15:29:16;12.95;;;7.55;;
66012;SDS011;52783;50.502;8.190;2022-09-11T15:31:42;11.57;;;6.97;;
66012;SDS011;52783;50.502;8.190;2022-09-11T15:34:08;11.75;;;6.70;;
66012;SDS011;52783;50.502;8.190;2022-09-11T15:36:35;13.43;;;7.43;;
66012;SDS011;52783;50.502;8.190;2022-09-11T15:39:05;12.73;;;7.47;;
66012;SDS011;52783;50.502;8.190;2022-09-11T15:41:31;12.45;;;7.35;;
66012;SDS011;52783;50.502;8.190;2022-09-11T15:43:57;13.85;;;7.00;;
66012;SDS011;52783;50.502;8.190;2022-09-11T15:46:23;12.48;;;7.55;;
66012;SDS011;52783;50.502;8.190;2022-09-11T15:48:50;13.10;;;7.18;;
66012;SDS011;52783;50.502;8.190;2022-09-11T15:51:16;14.98;;;8.45;;
66012;SDS011;52783;50.502;8.190;2022-09-11T15:53:44;12.98;;;8.07;;
66012;SDS011;52783;50.502;8.190;2022-09-11T15:56:10;12.75;;;7.70;;
66012;SDS011;52783;50.502;8.190;2022-09-11T15:58:39;13.07;;;7.20;;
66012;SDS011;52783;50.502;8.190;2022-09-11T16:01:06;12.80;;;7.35;;
66012;SDS011;52783;50.502;8.190;2022-09-11T16:03:41;13.52;;;7.43;;
66012;SDS011;52783;50.502;8.190;2022-09-11T16:06:07;12.95;;;7.78;;
66012;SDS011;52783;50.502;8.190;2022-09-11T16:08:33;13.18;;;7.55;;
66012;SDS011;52783;50.502;8.190;2022-09-11T16:11:02;15.45;;;8.00;;
66012;SDS011;52783;50.502;8.190;2022-09-11T16:13:28;18.38;;;8.35;;
66012;SDS011;52783;50.502;8.190;2022-09-11T16:16:02;15.10;;;8.93;;
66012;SDS011;52783;50.502;8.190;2022-09-11T16:18:29;14.48;;;8.32;;
66012;SDS011;52783;50.502;8.190;2022-09-11T16:20:58;14.68;;;8.52;;
66012;SDS011;52783;50.502;8.190;2022-09-11T16:23:24;14.18;;;8.45;;
66012;SDS011;52783;50.502;8.190;2022-09-11T16:25:50;12.48;;;7.38;;
66012;SDS011;52783;50.502;8.190;2022-09-11T16:28:16;16.52;;;8.13;;
66012;SDS011;52783;50.502;8.190;2022-09-11T16:30:43;11.77;;;7.65;;
66012;SDS011;52783;50.502;8.190;2022-09-11T16:33:09;16.35;;;7.80;;